createdAt,value
2022-08-26T00:00:19.928Z,95237.70
2022-08-26T00:03:03.610Z,95234.83
2022-08-26T00:05:32.289Z,95240.05
2022-08-26T00:08:00.549Z,95235.39
2022-08-26T00:10:28.974Z,95236.28
2022-08-26T00:12:57.394Z,95237.45
2022-08-26T00:15:26.592Z,95236.06
2022-08-26T00:17:55.720Z,95234.27
2022-08-26T00:20:27.739Z,95232.97
2022-08-26T00:22:56.159Z,95231.38
2022-08-26T00:25:25.220Z,95228.75
2022-08-26T00:27:53.550Z,95234.91
2022-08-26T00:30:27.401Z,95233.02
2022-08-26T00:32:57.052Z,95227.73
2022-08-26T00:35:27.973Z,95220.73
2022-08-26T00:37:58.013Z,95221.14
2022-08-26T00:40:38.846Z,95218.08
2022-08-26T00:43:09.444Z,95224.14
2022-08-26T00:45:56.612Z,95219.60
2022-08-26T00:48:31.756Z,95217.19
2022-08-26T00:51:14.839Z,95219.09
2022-08-26T00:53:50.576Z,95218.91
2022-08-26T00:56:27.803Z,95218.23
2022-08-26T00:59:00.098Z,95224.14
2022-08-26T01:01:28.681Z,95225.02
2022-08-26T01:04:00.109Z,95223.70
2022-08-26T01:06:29.935Z,95226.20
2022-08-26T01:08:58.993Z,95224.19
2022-08-26T01:11:28.115Z,95223.92
2022-08-26T01:14:00.658Z,95225.26
2022-08-26T01:16:33.262Z,95222.18
2022-08-26T01:19:10.491Z,95226.48
2022-08-26T01:21:48.535Z,95225.38
2022-08-26T01:24:18.393Z,95230.23
2022-08-26T01:26:48.675Z,95228.10
2022-08-26T01:29:20.109Z,95229.06
2022-08-26T01:31:55.581Z,95223.80
2022-08-26T01:34:25.992Z,95228.27
2022-08-26T01:37:17.178Z,95220.41
2022-08-26T01:39:49.088Z,95224.85
2022-08-26T01:42:20.108Z,95226.20
2022-08-26T01:45:03.901Z,95220.84
2022-08-26T01:47:35.891Z,95224.14
2022-08-26T01:50:10.876Z,95223.45
2022-08-26T01:52:42.712Z,95223.30
2022-08-26T01:55:32.063Z,95222.31
2022-08-26T01:57:59.775Z,95222.93
2022-08-26T02:00:28.503Z,95220.25
2022-08-26T02:03:17.223Z,95222.41
2022-08-26T02:05:53.550Z,95217.27
2022-08-26T02:08:45.246Z,95215.33
2022-08-26T02:11:14.442Z,95216.75
2022-08-26T02:13:54.458Z,95219.92
2022-08-26T02:16:27.573Z,95212.86
2022-08-26T02:18:57.927Z,95210.08
2022-08-26T02:21:26.751Z,95210.00
2022-08-26T02:23:56.106Z,95212.39
2022-08-26T02:26:27.011Z,95210.78
2022-08-26T02:29:23.804Z,95211.92
2022-08-26T02:31:55.029Z,95210.30
2022-08-26T02:34:28.261Z,95208.60
2022-08-26T02:37:01.411Z,95209.23
2022-08-26T02:39:30.469Z,95203.55
2022-08-26T02:41:59.621Z,95204.84
2022-08-26T02:44:27.998Z,95200.10
2022-08-26T02:46:56.390Z,95196.83
2022-08-26T02:49:26.459Z,95202.38
2022-08-26T02:51:54.790Z,95200.46
2022-08-26T02:54:23.358Z,95198.48
2022-08-26T02:56:51.709Z,95201.13
2022-08-26T02:59:20.069Z,95203.52
2022-08-26T03:01:56.097Z,95203.25
2022-08-26T03:04:25.768Z,95204.86
2022-08-26T03:06:55.573Z,95206.10
2022-08-26T03:09:24.669Z,95203.95
2022-08-26T03:11:53.186Z,95207.94
2022-08-26T03:14:24.062Z,95208.50
2022-08-26T03:16:54.477Z,95211.70
2022-08-26T03:19:25.497Z,95206.00
2022-08-26T03:21:58.028Z,95206.55
2022-08-26T03:24:26.980Z,95207.45
2022-08-26T03:26:55.554Z,95205.85
2022-08-26T03:29:42.539Z,95203.46
2022-08-26T03:32:12.056Z,95207.30
2022-08-26T03:34:40.759Z,95203.67
2022-08-26T03:37:09.288Z,95203.30
2022-08-26T03:39:38.169Z,95202.13
2022-08-26T03:42:06.629Z,95202.20
2022-08-26T03:44:37.348Z,95198.42
2022-08-26T03:47:10.677Z,95201.52
2022-08-26T03:49:38.977Z,95199.42
2022-08-26T03:52:07.783Z,95203.14
2022-08-26T03:54:36.122Z,95204.38
2022-08-26T03:57:05.109Z,95203.43
2022-08-26T03:59:33.992Z,95202.92
2022-08-26T04:02:02.360Z,95200.95
2022-08-26T04:04:30.859Z,95202.27
2022-08-26T04:06:59.807Z,95199.71
2022-08-26T04:09:28.525Z,95200.39
2022-08-26T04:11:58.726Z,95198.92
2022-08-26T04:14:28.243Z,95202.52
2022-08-26T04:16:56.939Z,95200.73
2022-08-26T04:19:26.106Z,95201.08
2022-08-26T04:21:54.760Z,95204.73
2022-08-26T04:24:25.226Z,95201.67
2022-08-26T04:26:54.092Z,95203.84
2022-08-26T04:29:25.490Z,95207.05
2022-08-26T04:31:57.616Z,95203.73
2022-08-26T04:34:29.007Z,95205.44
2022-08-26T04:36:58.284Z,95209.36
2022-08-26T04:39:27.753Z,95208.55
2022-08-26T04:41:59.250Z,95210.77
2022-08-26T04:44:37.758Z,95210.02
2022-08-26T04:47:10.838Z,95203.67
2022-08-26T04:49:39.637Z,95203.45
2022-08-26T04:52:09.650Z,95208.59
2022-08-26T04:54:38.135Z,95206.23
2022-08-26T04:57:10.519Z,95205.95
2022-08-26T04:59:39.538Z,95203.45
2022-08-26T05:02:08.183Z,95206.23
2022-08-26T05:04:38.034Z,95204.23
2022-08-26T05:07:28.988Z,95205.98
2022-08-26T05:09:57.446Z,95207.41
2022-08-26T05:12:25.843Z,95211.38
2022-08-26T05:14:54.309Z,95209.56
2022-08-26T05:17:23.703Z,95211.93
2022-08-26T05:19:52.131Z,95205.23
2022-08-26T05:22:21.011Z,95207.49
2022-08-26T05:24:49.550Z,95205.75
2022-08-26T05:27:17.972Z,95206.64
2022-08-26T05:29:46.753Z,95206.67
2022-08-26T05:32:23.813Z,95206.17
2022-08-26T05:34:57.198Z,95209.23
2022-08-26T05:37:27.006Z,95208.27
2022-08-26T05:39:55.463Z,95209.35
2022-08-26T05:42:23.998Z,95203.58
2022-08-26T05:44:55.999Z,95203.85
2022-08-26T05:47:25.559Z,95205.35
2022-08-26T05:49:54.540Z,95200.20
2022-08-26T05:52:24.640Z,95200.35
2022-08-26T05:54:55.805Z,95198.33
2022-08-26T05:57:24.478Z,95195.73
2022-08-26T05:59:53.023Z,95194.69
2022-08-26T06:02:21.862Z,95192.35
2022-08-26T06:04:50.300Z,95189.89
2022-08-26T06:07:40.352Z,95188.51
2022-08-26T06:10:32.625Z,95189.08
2022-08-26T06:13:11.552Z,95192.27
2022-08-26T06:15:43.346Z,95190.09
2022-08-26T06:18:14.781Z,95191.59
2022-08-26T06:20:54.636Z,95196.34
2022-08-26T06:23:40.907Z,95196.09
2022-08-26T06:26:11.415Z,95190.80
2022-08-26T06:28:39.741Z,95192.96
2022-08-26T06:31:12.767Z,95196.02
2022-08-26T06:33:45.069Z,95195.48
2022-08-26T06:36:19.540Z,95194.57
2022-08-26T06:38:49.485Z,95191.20
2022-08-26T06:41:21.175Z,95195.35
2022-08-26T06:43:50.892Z,95194.42
2022-08-26T06:46:22.113Z,95194.23
2022-08-26T06:48:50.652Z,95195.23
2022-08-26T06:51:23.588Z,95193.15
2022-08-26T06:53:54.707Z,95198.57
2022-08-26T06:56:25.990Z,95199.73
2022-08-26T06:58:54.811Z,95200.85
2022-08-26T07:01:33.801Z,95194.88
2022-08-26T07:04:05.214Z,95194.02
2022-08-26T07:06:41.437Z,95197.80
2022-08-26T07:09:12.213Z,95194.14
2022-08-26T07:11:42.518Z,95191.84
2022-08-26T07:14:12.287Z,95192.05
2022-08-26T07:16:43.510Z,95188.42
2022-08-26T07:19:13.969Z,95186.89
2022-08-26T07:21:42.778Z,95184.56
2022-08-26T07:26:48.893Z,95184.14
2022-08-26T07:29:20.165Z,95181.36
2022-08-26T07:31:56.815Z,95177.67
2022-08-26T07:34:29.325Z,95172.55
2022-08-26T07:36:59.096Z,95177.30
2022-08-26T07:39:28.278Z,95179.52
2022-08-26T07:42:23.686Z,95174.20
2022-08-26T07:45:15.423Z,95168.23
2022-08-26T07:47:44.165Z,95168.21
2022-08-26T07:50:17.071Z,95164.14
2022-08-26T07:52:46.269Z,95168.70
2022-08-26T07:55:20.100Z,95166.08
2022-08-26T07:57:49.568Z,95162.45
2022-08-26T08:00:18.159Z,95167.13
2022-08-26T08:02:47.249Z,95163.95
2022-08-26T08:06:18.825Z,95162.53
2022-08-26T08:08:59.198Z,95160.17
2022-08-26T08:11:31.308Z,95159.05
2022-08-26T08:14:40.179Z,95159.36
2022-08-26T08:17:09.163Z,95159.61
2022-08-26T08:19:39.653Z,95151.51
2022-08-26T08:35:30.782Z,95143.48
2022-08-26T08:38:00.489Z,95137.55
2022-08-26T08:51:39.958Z,95131.83
2022-08-26T08:54:18.057Z,95132.19
2022-08-26T08:56:53.506Z,95130.30
2022-08-26T08:59:32.389Z,95126.40
2022-08-26T09:02:12.048Z,95126.78
2022-08-26T09:04:59.996Z,95117.23
2022-08-26T09:07:36.947Z,95128.18
2022-08-26T09:10:17.033Z,95122.81
2022-08-26T09:13:19.585Z,95115.95
2022-08-26T09:16:08.116Z,95112.91
2022-08-26T09:18:46.152Z,95112.33
2022-08-26T09:21:17.790Z,95104.64
2022-08-26T09:23:51.004Z,95098.64
2022-08-26T09:26:31.966Z,95102.08
2022-08-26T09:29:03.753Z,95096.15
2022-08-26T09:31:42.282Z,95094.80
2022-08-26T09:37:25.046Z,95093.73
2022-08-26T09:39:53.662Z,95089.73
2022-08-26T09:42:26.789Z,95089.70
2022-08-26T09:45:06.592Z,95083.00
2022-08-26T09:47:54.626Z,95082.86
2022-08-26T09:50:35.131Z,95080.55
2022-08-26T09:53:16.095Z,95078.46
2022-08-26T09:55:46.682Z,95078.60
2022-08-26T09:58:28.528Z,95076.14
2022-08-26T10:01:02.703Z,95077.68
2022-08-26T10:06:13.013Z,95079.23
2022-08-26T10:08:47.644Z,95080.75
2022-08-26T10:14:48.053Z,95078.90
2022-08-26T10:17:30.933Z,95078.38
2022-08-26T10:20:13.636Z,95076.75
2022-08-26T10:23:18.113Z,95077.48
2022-08-26T10:25:53.540Z,95074.27
2022-08-26T10:28:33.986Z,95071.54
2022-08-26T10:31:09.983Z,95069.92
2022-08-26T10:33:39.424Z,95068.45
2022-08-26T10:36:39.295Z,95071.20
2022-08-26T10:39:19.021Z,95061.27
2022-08-26T10:41:52.255Z,95063.70
2022-08-26T10:44:21.993Z,95061.70
2022-08-26T10:47:03.453Z,95062.77
2022-08-26T10:49:34.759Z,95060.86
2022-08-26T10:52:16.597Z,95064.94
2022-08-26T10:54:51.326Z,95062.27
2022-08-26T10:57:23.033Z,95052.92
2022-08-26T11:00:27.590Z,95058.86
2022-08-26T11:03:22.547Z,95059.30
2022-08-26T11:05:52.994Z,95056.02
2022-08-26T11:08:22.155Z,95055.03
2022-08-26T11:10:53.663Z,95058.59
2022-08-26T11:13:33.963Z,95054.45
2022-08-26T11:16:02.686Z,95053.08
2022-08-26T11:18:39.020Z,95048.50
2022-08-26T11:21:46.065Z,95047.52
2022-08-26T11:24:36.110Z,95041.70
2022-08-26T11:27:05.253Z,95043.17
2022-08-26T11:29:41.954Z,95041.81
2022-08-26T11:32:23.207Z,95038.06
2022-08-26T11:34:59.285Z,95041.17
2022-08-26T11:37:41.300Z,95038.02
2022-08-26T11:40:38.598Z,95039.98
2022-08-26T11:43:30.287Z,95036.27
2022-08-26T11:46:09.238Z,95031.06
2022-08-26T11:49:06.282Z,95024.13
2022-08-26T11:56:12.522Z,95017.48
2022-08-26T12:02:27.032Z,95019.30
2022-08-26T12:04:56.522Z,95013.57
2022-08-26T12:07:32.890Z,95011.52
2022-08-26T12:29:29.225Z,95011.80
2022-08-26T12:32:06.126Z,95009.23
2022-08-26T12:34:35.833Z,95006.42
2022-08-26T12:37:11.097Z,94998.55
2022-08-26T12:39:41.190Z,95001.05
2022-08-26T12:42:47.097Z,94995.66
2022-08-26T12:46:26.148Z,94995.18
2022-08-26T12:49:19.380Z,94992.77
2022-08-26T12:52:30.427Z,94985.87
2022-08-26T12:55:11.055Z,94990.78
2022-08-26T12:58:33.145Z,94989.16
2022-08-26T13:01:09.223Z,94983.58
2022-08-26T13:03:43.796Z,94989.08
2022-08-26T13:06:22.482Z,94988.80
2022-08-26T13:09:05.115Z,94986.75
2022-08-26T13:11:40.622Z,94988.30
2022-08-26T13:15:20.819Z,94987.88
2022-08-26T13:18:09.313Z,94985.23
2022-08-26T13:20:44.953Z,94977.04
2022-08-26T13:24:15.388Z,94981.98
2022-08-26T13:26:49.708Z,94976.69
2022-08-26T13:29:39.560Z,94974.27
2022-08-26T13:32:15.769Z,94971.73
2022-08-26T13:34:51.039Z,94965.83
2022-08-26T13:37:48.343Z,94968.94
2022-08-26T13:40:19.142Z,94970.10
2022-08-26T13:42:49.906Z,94965.77
2022-08-26T13:45:21.643Z,94965.23
2022-08-26T13:47:54.742Z,94960.61
2022-08-26T13:50:23.466Z,94968.75
2022-08-26T13:53:10.910Z,94953.33
2022-08-26T13:55:39.577Z,94957.41
2022-08-26T13:58:13.927Z,94956.71
2022-08-26T14:01:43.116Z,94959.33
2022-08-26T14:04:11.527Z,94958.48
2022-08-26T14:06:49.105Z,94953.52
2022-08-26T14:10:07.446Z,94955.98
2022-08-26T14:12:36.744Z,94956.02
2022-08-26T14:15:28.693Z,94952.21
2022-08-26T14:25:02.114Z,94946.36
2022-08-26T14:27:31.281Z,94945.56
2022-08-26T14:29:59.944Z,94945.21
2022-08-26T14:32:33.327Z,94944.98
2022-08-26T14:38:51.140Z,94947.88
2022-08-26T14:41:27.248Z,94945.74
2022-08-26T14:44:18.623Z,94948.96
2022-08-26T15:00:31.614Z,94948.32
2022-08-26T15:02:58.982Z,94945.67
2022-08-26T15:05:33.960Z,94942.23
2022-08-26T15:08:03.996Z,94946.31
2022-08-26T15:10:32.028Z,94944.19
2022-08-26T15:29:08.986Z,94939.81
2022-08-26T15:31:36.659Z,94941.04
2022-08-26T15:34:20.226Z,94936.27
2022-08-26T15:37:14.543Z,94941.10
2022-08-26T15:39:41.579Z,94939.42
2022-08-26T15:42:37.601Z,94939.79
2022-08-26T15:45:26.423Z,94942.02
2022-08-26T15:48:53.038Z,94938.84
2022-08-26T15:51:29.936Z,94929.27
2022-08-26T15:54:12.284Z,94930.09
2022-08-26T15:57:04.085Z,94930.60
2022-08-26T15:59:37.221Z,94930.69
2022-08-26T16:02:59.236Z,94932.68
2022-08-26T16:12:53.494Z,94933.73
2022-08-26T16:15:49.461Z,94934.59
2022-08-26T16:18:43.876Z,94934.70
2022-08-26T16:21:22.100Z,94938.48
2022-08-26T16:24:58.634Z,94938.20
2022-08-26T16:27:26.838Z,94935.13
2022-08-26T16:29:53.868Z,94936.95
2022-08-26T16:33:29.176Z,94935.95
2022-08-26T16:36:19.625Z,94939.22
2022-08-26T16:42:41.664Z,94943.27
2022-08-26T16:45:09.423Z,94944.80
2022-08-26T16:47:36.812Z,94939.48
2022-08-26T16:51:00.032Z,94934.73
2022-08-26T16:53:46.611Z,94927.73
2022-08-26T16:56:57.343Z,94935.68
2022-08-26T17:02:20.342Z,94937.67
2022-08-26T17:05:24.351Z,94941.35
2022-08-26T17:07:56.196Z,94942.05
2022-08-26T17:10:28.107Z,94943.38
2022-08-26T17:12:56.076Z,94941.46
2022-08-26T17:15:23.740Z,94935.97
2022-08-26T17:17:52.111Z,94939.73
2022-08-26T17:20:25.944Z,94939.92
2022-08-26T17:23:27.646Z,94947.52
2022-08-26T17:25:54.867Z,94949.77
2022-08-26T17:28:22.242Z,94950.77
2022-08-26T17:30:49.332Z,94958.11
2022-08-26T17:33:17.115Z,94960.73
2022-08-26T17:38:17.858Z,94959.20
2022-08-26T17:40:49.626Z,94959.05
2022-08-26T17:43:16.897Z,94957.05
2022-08-26T17:45:44.227Z,94956.02
2022-08-26T17:48:12.181Z,94958.23
2022-08-26T17:50:45.555Z,94955.50
2022-08-26T17:53:18.728Z,94956.57
2022-08-26T17:55:51.798Z,94958.36
2022-08-26T17:58:22.700Z,94961.88
2022-08-26T18:00:56.166Z,94959.98
2022-08-26T18:03:23.942Z,94959.05
2022-08-26T18:06:14.011Z,94960.68
2022-08-26T18:08:43.402Z,94959.80
2022-08-26T18:11:40.603Z,94965.52
2022-08-26T18:14:08.337Z,94964.02
2022-08-26T18:16:39.080Z,94964.34
2022-08-26T18:19:06.836Z,94967.27
2022-08-26T18:21:35.627Z,94964.81
2022-08-26T18:24:03.133Z,94967.73
2022-08-26T18:26:36.990Z,94968.25
2022-08-26T18:29:06.555Z,94968.19
2022-08-26T18:31:34.567Z,94967.70
2022-08-26T18:34:02.474Z,94969.14
2022-08-26T18:36:31.561Z,94971.38
2022-08-26T18:38:58.791Z,94969.48
2022-08-26T18:41:28.729Z,94966.48
2022-08-26T18:43:56.248Z,94961.98
2022-08-26T18:46:25.948Z,94962.77
2022-08-26T18:48:55.072Z,94962.02
2022-08-26T18:51:26.566Z,94963.06
2022-08-26T18:53:53.593Z,94959.10
2022-08-26T18:56:22.005Z,94961.05
2022-08-26T18:58:50.057Z,94958.48
2022-08-26T19:01:18.961Z,94958.30
2022-08-26T19:03:46.666Z,94960.47
2022-08-26T19:06:16.389Z,94960.38
2022-08-26T19:08:44.738Z,94963.56
2022-08-26T19:11:13.844Z,94970.56
2022-08-26T19:13:42.127Z,94968.98
2022-08-26T19:16:23.234Z,94969.10
2022-08-26T19:18:52.091Z,94972.43
2022-08-26T19:21:22.832Z,94971.14
2022-08-26T19:23:50.456Z,94974.31
2022-08-26T19:26:18.036Z,94974.58
2022-08-26T19:28:48.809Z,94977.42
2022-08-26T19:31:16.375Z,94980.23
2022-08-26T19:33:44.834Z,94979.29
2022-08-26T19:36:21.595Z,94981.28
2022-08-26T19:38:49.476Z,94975.51
2022-08-26T19:41:20.031Z,94972.72
2022-08-26T19:43:47.087Z,94973.61
2022-08-26T19:46:17.342Z,94972.29
2022-08-26T19:48:45.353Z,94973.99
2022-08-26T19:51:17.547Z,94975.69
2022-08-26T19:53:46.281Z,94976.35
2022-08-26T19:56:13.812Z,94978.54
2022-08-26T19:58:41.264Z,94971.09
2022-08-26T20:01:09.493Z,94972.98
2022-08-26T20:06:09.852Z,94975.29
2022-08-26T20:08:39.156Z,94973.55
2022-08-26T20:11:11.395Z,94974.00
2022-08-26T20:13:39.384Z,94967.89
2022-08-26T20:16:07.045Z,94972.36
2022-08-26T20:18:50.868Z,94970.31
2022-08-26T20:21:27.648Z,94973.67
2022-08-26T20:24:01.464Z,94975.40
2022-08-26T20:26:29.978Z,94977.06
2022-08-26T20:28:57.958Z,94981.41
2022-08-26T20:31:26.842Z,94980.52
2022-08-26T20:33:53.980Z,94982.84
2022-08-26T20:36:23.590Z,94975.65
2022-08-26T20:38:50.910Z,94978.20
2022-08-26T20:41:18.764Z,94978.54
2022-08-26T20:43:46.630Z,94976.67
2022-08-26T20:46:21.870Z,94974.66
2022-08-26T20:48:52.222Z,94977.64
2022-08-26T20:51:20.732Z,94981.20
2022-08-26T20:53:48.017Z,94979.89
2022-08-26T20:56:18.657Z,94979.86
2022-08-26T20:58:46.029Z,94982.39
2022-08-26T21:01:21.804Z,94981.74
2022-08-26T21:03:51.753Z,94976.19
2022-08-26T21:06:18.983Z,94979.14
2022-08-26T21:08:47.774Z,94981.70
2022-08-26T21:11:16.947Z,94983.83
2022-08-26T21:14:04.011Z,94983.11
2022-08-26T21:16:28.047Z,94978.33
2022-08-26T21:18:55.507Z,94985.44
2022-08-26T21:21:25.141Z,94984.81
2022-08-26T21:26:29.924Z,94985.56
2022-08-26T21:28:57.452Z,94989.48
2022-08-26T21:31:25.003Z,94986.84
2022-08-26T21:33:52.664Z,94989.29
2022-08-26T21:36:19.958Z,94985.69
2022-08-26T21:38:48.019Z,94987.30
2022-08-26T21:41:19.568Z,94987.77
2022-08-26T21:43:48.648Z,94988.16
2022-08-26T21:46:18.465Z,94986.69
2022-08-26T21:48:50.769Z,94985.38
2022-08-26T21:51:21.956Z,94985.34
2022-08-26T21:53:52.076Z,94986.41
2022-08-26T21:56:20.999Z,94983.16
2022-08-26T21:58:48.869Z,94987.86
2022-08-26T22:01:24.328Z,94990.39
2022-08-26T22:03:52.435Z,94990.57
2022-08-26T22:06:22.334Z,94987.66
2022-08-26T22:08:50.315Z,94986.91
2022-08-26T22:11:18.087Z,94986.95
2022-08-26T22:13:46.338Z,94989.25
2022-08-26T22:16:14.243Z,94988.58
2022-08-26T22:18:43.238Z,94987.63
2022-08-26T22:21:14.233Z,94986.77
2022-08-26T22:23:41.940Z,94989.23
2022-08-26T22:26:25.725Z,94993.06
2022-08-26T22:28:58.485Z,94991.38
2022-08-26T22:31:36.919Z,94988.33
2022-08-26T22:34:09.558Z,94990.55
2022-08-26T22:36:43.754Z,94984.89
2022-08-26T22:39:13.388Z,94983.80
2022-08-26T22:41:42.699Z,94984.02
2022-08-26T22:44:11.497Z,94986.14
2022-08-26T22:46:41.397Z,94980.67
2022-08-26T22:49:10.850Z,94982.66
2022-08-26T22:51:38.560Z,94987.55
2022-08-26T22:54:06.201Z,94984.95
2022-08-26T22:56:33.671Z,94986.52
2022-08-26T22:59:04.293Z,94980.79
2022-08-26T23:01:35.125Z,94981.01
2022-08-26T23:04:03.238Z,94980.95
2022-08-26T23:06:30.485Z,94977.01
2022-08-26T23:08:57.817Z,94974.54
2022-08-26T23:11:25.020Z,94975.31
2022-08-26T23:13:52.093Z,94972.14
2022-08-26T23:16:19.425Z,94971.04
2022-08-26T23:18:46.669Z,94973.42
2022-08-26T23:21:13.849Z,94976.23
2022-08-26T23:23:41.198Z,94975.93
2022-08-26T23:26:08.486Z,94969.69
2022-08-26T23:28:36.772Z,94969.40
2022-08-26T23:31:04.809Z,94966.24
2022-08-26T23:33:42.056Z,94960.86
2022-08-26T23:36:12.683Z,94958.06
2022-08-26T23:38:42.956Z,94959.79
2022-08-26T23:41:10.261Z,94961.93
2022-08-26T23:43:37.321Z,94961.16
2022-08-26T23:46:04.705Z,94960.73
2022-08-26T23:48:31.683Z,94960.61
2022-08-26T23:51:05.028Z,94956.48
2022-08-26T23:53:32.065Z,94957.24
2022-08-26T23:55:59.364Z,94954.48
2022-08-26T23:58:26.511Z,94951.19
